« Back
NWS Peachtree City, Ga » Text Product » AHN Terminal Aerodrome Forecast


Printer-friendly Version
Current Version              Previous Versions:   1  2  3  4  5  6  7  8  9  

Terminal Aerodrome Forecast

181
FTUS42 KFFC 190520
TAFAHN
TAF
KAHN 190520Z 1906/2006 00000KT 6SM -RA SCT004 BKN050
      TEMPO 1906/1910 -SHRA BKN004 OVC012
     FM191000 13003KT 4SM -SHRA BR OVC008
      TEMPO 1915/1917 4SM -TSRA BKN010CB
     FM191700 19010KT 4SM -SHRA BKN012 OVC025
     FM191900 21010KT P6SM BKN015
     FM192100 22010G16KT P6SM VCSH BKN030=

USA.gov is the U.S. government's official web portal to all federal, state and local government web resources and services.